sensor_id;sensor_type;location;lat;lon;timestamp;temperature;humidity
37560;DHT22;23398;50.928;7.084;2024-02-26T00:02:16;12.00;57.00
37560;DHT22;23398;50.928;7.084;2024-02-26T00:04:42;12.00;57.00
37560;DHT22;23398;50.928;7.084;2024-02-26T00:07:08;12.00;57.00
37560;DHT22;23398;50.928;7.084;2024-02-26T00:09:34;12.00;57.20
37560;DHT22;23398;50.928;7.084;2024-02-26T00:12:03;11.90;57.20
37560;DHT22;23398;50.928;7.084;2024-02-26T00:14:30;11.90;57.40
37560;DHT22;23398;50.928;7.084;2024-02-26T00:16:55;11.90;57.60
37560;DHT22;23398;50.928;7.084;2024-02-26T00:19:21;11.90;57.70
37560;DHT22;23398;50.928;7.084;2024-02-26T00:21:47;11.90;57.60
37560;DHT22;23398;50.928;7.084;2024-02-26T00:24:12;11.80;57.60
37560;DHT22;23398;50.928;7.084;2024-02-26T00:26:38;11.80;57.60
37560;DHT22;23398;50.928;7.084;2024-02-26T00:29:04;11.80;57.90
37560;DHT22;23398;50.928;7.084;2024-02-26T00:31:29;11.80;58.10
37560;DHT22;23398;50.928;7.084;2024-02-26T00:33:55;11.70;58.10
37560;DHT22;23398;50.928;7.084;2024-02-26T00:36:21;11.70;58.10
37560;DHT22;23398;50.928;7.084;2024-02-26T00:38:46;11.60;58.40
37560;DHT22;23398;50.928;7.084;2024-02-26T00:41:17;11.60;58.70
37560;DHT22;23398;50.928;7.084;2024-02-26T00:43:43;11.50;59.10
37560;DHT22;23398;50.928;7.084;2024-02-26T00:46:08;11.50;59.30
37560;DHT22;23398;50.928;7.084;2024-02-26T00:48:35;11.40;59.10
37560;DHT22;23398;50.928;7.084;2024-02-26T00:51:00;11.30;59.20
37560;DHT22;23398;50.928;7.084;2024-02-26T00:53:26;11.30;59.10
37560;DHT22;23398;50.928;7.084;2024-02-26T00:55:52;11.20;59.20
37560;DHT22;23398;50.928;7.084;2024-02-26T00:58:17;11.10;59.50
37560;DHT22;23398;50.928;7.084;2024-02-26T01:00:44;11.10;59.70
37560;DHT22;23398;50.928;7.084;2024-02-26T01:03:09;11.00;59.70
37560;DHT22;23398;50.928;7.084;2024-02-26T01:05:36;11.00;59.80
37560;DHT22;23398;50.928;7.084;2024-02-26T01:08:03;10.90;59.90
37560;DHT22;23398;50.928;7.084;2024-02-26T01:10:28;10.90;60.30
37560;DHT22;23398;50.928;7.084;2024-02-26T01:12:54;10.80;60.30
37560;DHT22;23398;50.928;7.084;2024-02-26T01:15:19;10.80;60.40
37560;DHT22;23398;50.928;7.084;2024-02-26T01:17:49;10.80;60.50
37560;DHT22;23398;50.928;7.084;2024-02-26T01:20:15;10.80;61.00
37560;DHT22;23398;50.928;7.084;2024-02-26T01:22:40;10.80;61.30
37560;DHT22;23398;50.928;7.084;2024-02-26T01:25:07;10.70;61.50
37560;DHT22;23398;50.928;7.084;2024-02-26T01:27:33;10.70;61.40
37560;DHT22;23398;50.928;7.084;2024-02-26T01:29:58;10.70;61.50
37560;DHT22;23398;50.928;7.084;2024-02-26T01:32:24;10.70;61.70
37560;DHT22;23398;50.928;7.084;2024-02-26T01:34:49;10.70;62.60
37560;DHT22;23398;50.928;7.084;2024-02-26T01:37:15;10.70;62.20
37560;DHT22;23398;50.928;7.084;2024-02-26T01:39:40;10.70;62.20
37560;DHT22;23398;50.928;7.084;2024-02-26T01:42:07;10.70;62.60
37560;DHT22;23398;50.928;7.084;2024-02-26T01:44:33;10.60;62.80
37560;DHT22;23398;50.928;7.084;2024-02-26T01:46:59;10.60;63.20
37560;DHT22;23398;50.928;7.084;2024-02-26T01:49:27;10.60;63.30
37560;DHT22;23398;50.928;7.084;2024-02-26T01:51:54;10.60;63.50
37560;DHT22;23398;50.928;7.084;2024-02-26T01:54:20;10.50;63.30
37560;DHT22;23398;50.928;7.084;2024-02-26T01:56:46;10.50;63.50
37560;DHT22;23398;50.928;7.084;2024-02-26T01:59:11;10.50;63.40
37560;DHT22;23398;50.928;7.084;2024-02-26T02:01:39;10.50;63.80
37560;DHT22;23398;50.928;7.084;2024-02-26T02:04:08;10.50;63.80
37560;DHT22;23398;50.928;7.084;2024-02-26T02:06:35;10.40;63.90
37560;DHT22;23398;50.928;7.084;2024-02-26T02:09:01;10.40;64.50
37560;DHT22;23398;50.928;7.084;2024-02-26T02:11:34;10.40;64.30
37560;DHT22;23398;50.928;7.084;2024-02-26T02:14:00;10.40;64.50
37560;DHT22;23398;50.928;7.084;2024-02-26T02:16:25;10.40;64.80
37560;DHT22;23398;50.928;7.084;2024-02-26T02:18:51;10.40;65.20
37560;DHT22;23398;50.928;7.084;2024-02-26T02:21:16;10.60;65.70
37560;DHT22;23398;50.928;7.084;2024-02-26T02:23:42;10.30;65.20
37560;DHT22;23398;50.928;7.084;2024-02-26T02:26:15;10.30;65.30
37560;DHT22;23398;50.928;7.084;2024-02-26T02:28:41;10.30;65.40
37560;DHT22;23398;50.928;7.084;2024-02-26T02:31:07;10.20;65.60
37560;DHT22;23398;50.928;7.084;2024-02-26T02:33:34;10.20;65.90
37560;DHT22;23398;50.928;7.084;2024-02-26T02:36:00;10.20;65.90
37560;DHT22;23398;50.928;7.084;2024-02-26T02:38:25;10.20;65.60
37560;DHT22;23398;50.928;7.084;2024-02-26T02:40:54;10.20;65.40
37560;DHT22;23398;50.928;7.084;2024-02-26T02:43:20;10.20;66.00
37560;DHT22;23398;50.928;7.084;2024-02-26T02:45:46;10.20;66.10
37560;DHT22;23398;50.928;7.084;2024-02-26T02:48:11;10.10;66.00
37560;DHT22;23398;50.928;7.084;2024-02-26T02:50:37;10.10;66.20
37560;DHT22;23398;50.928;7.084;2024-02-26T02:53:03;10.20;66.40
37560;DHT22;23398;50.928;7.084;2024-02-26T02:55:29;10.10;66.30
37560;DHT22;23398;50.928;7.084;2024-02-26T02:57:54;10.10;66.30
37560;DHT22;23398;50.928;7.084;2024-02-26T03:00:20;10.10;66.40
37560;DHT22;23398;50.928;7.084;2024-02-26T03:02:48;10.10;66.60
37560;DHT22;23398;50.928;7.084;2024-02-26T03:05:14;10.10;66.80
37560;DHT22;23398;50.928;7.084;2024-02-26T03:07:40;10.20;66.40
37560;DHT22;23398;50.928;7.084;2024-02-26T03:10:05;10.20;67.00
37560;DHT22;23398;50.928;7.084;2024-02-26T03:12:33;10.10;67.10
37560;DHT22;23398;50.928;7.084;2024-02-26T03:14:59;10.10;67.30
37560;DHT22;23398;50.928;7.084;2024-02-26T03:17:28;10.20;67.20
37560;DHT22;23398;50.928;7.084;2024-02-26T03:19:54;10.10;67.30
37560;DHT22;23398;50.928;7.084;2024-02-26T03:22:19;10.10;67.40
37560;DHT22;23398;50.928;7.084;2024-02-26T03:24:46;10.10;67.60
37560;DHT22;23398;50.928;7.084;2024-02-26T03:27:11;10.10;68.00
37560;DHT22;23398;50.928;7.084;2024-02-26T03:29:38;10.00;68.50
37560;DHT22;23398;50.928;7.084;2024-02-26T03:32:06;10.00;68.90
37560;DHT22;23398;50.928;7.084;2024-02-26T03:34:33;10.00;68.90
37560;DHT22;23398;50.928;7.084;2024-02-26T03:37:01;10.00;69.00
37560;DHT22;23398;50.928;7.084;2024-02-26T03:39:27;10.00;69.00
37560;DHT22;23398;50.928;7.084;2024-02-26T03:41:52;9.90;70.30
37560;DHT22;23398;50.928;7.084;2024-02-26T03:44:19;9.90;70.70
37560;DHT22;23398;50.928;7.084;2024-02-26T03:46:45;9.90;70.70
37560;DHT22;23398;50.928;7.084;2024-02-26T03:49:10;9.90;70.90
37560;DHT22;23398;50.928;7.084;2024-02-26T03:51:36;9.90;71.00
37560;DHT22;23398;50.928;7.084;2024-02-26T03:54:02;9.90;70.60
37560;DHT22;23398;50.928;7.084;2024-02-26T03:56:28;9.90;71.10
37560;DHT22;23398;50.928;7.084;2024-02-26T03:58:54;9.90;71.40
37560;DHT22;23398;50.928;7.084;2024-02-26T04:01:19;9.90;71.80
37560;DHT22;23398;50.928;7.084;2024-02-26T04:03:45;9.90;71.20
37560;DHT22;23398;50.928;7.084;2024-02-26T04:06:11;9.90;71.30
37560;DHT22;23398;50.928;7.084;2024-02-26T04:08:40;9.90;71.80
37560;DHT22;23398;50.928;7.084;2024-02-26T04:11:05;9.90;72.00
37560;DHT22;23398;50.928;7.084;2024-02-26T04:13:34;9.80;72.10
37560;DHT22;23398;50.928;7.084;2024-02-26T04:16:00;9.90;72.30
37560;DHT22;23398;50.928;7.084;2024-02-26T04:18:28;9.90;72.10
37560;DHT22;23398;50.928;7.084;2024-02-26T04:20:54;9.90;72.00
37560;DHT22;23398;50.928;7.084;2024-02-26T04:23:20;9.90;72.40
37560;DHT22;23398;50.928;7.084;2024-02-26T04:25:45;9.90;72.40
37560;DHT22;23398;50.928;7.084;2024-02-26T04:28:12;9.90;72.70
37560;DHT22;23398;50.928;7.084;2024-02-26T04:30:38;9.90;73.10
37560;DHT22;23398;50.928;7.084;2024-02-26T04:33:03;9.90;73.30
37560;DHT22;23398;50.928;7.084;2024-02-26T04:35:29;9.90;73.20
37560;DHT22;23398;50.928;7.084;2024-02-26T04:37:55;9.90;73.60
37560;DHT22;23398;50.928;7.084;2024-02-26T04:40:21;10.00;72.80
37560;DHT22;23398;50.928;7.084;2024-02-26T04:42:46;9.90;73.90
37560;DHT22;23398;50.928;7.084;2024-02-26T04:45:12;9.90;74.20
37560;DHT22;23398;50.928;7.084;2024-02-26T04:47:38;9.80;74.20
37560;DHT22;23398;50.928;7.084;2024-02-26T04:50:03;9.80;74.30
37560;DHT22;23398;50.928;7.084;2024-02-26T04:52:29;9.90;75.40
37560;DHT22;23398;50.928;7.084;2024-02-26T04:54:54;9.80;74.50
37560;DHT22;23398;50.928;7.084;2024-02-26T04:57:21;9.80;74.60
37560;DHT22;23398;50.928;7.084;2024-02-26T04:59:47;9.80;74.90
37560;DHT22;23398;50.928;7.084;2024-02-26T05:02:13;9.80;75.00
37560;DHT22;23398;50.928;7.084;2024-02-26T05:04:39;9.80;75.10
37560;DHT22;23398;50.928;7.084;2024-02-26T05:07:04;9.80;75.30
37560;DHT22;23398;50.928;7.084;2024-02-26T05:09:30;9.80;75.40
37560;DHT22;23398;50.928;7.084;2024-02-26T05:11:56;9.80;75.60
37560;DHT22;23398;50.928;7.084;2024-02-26T05:14:21;9.80;75.70
37560;DHT22;23398;50.928;7.084;2024-02-26T05:16:47;9.80;76.70
37560;DHT22;23398;50.928;7.084;2024-02-26T05:19:13;9.80;76.10
37560;DHT22;23398;50.928;7.084;2024-02-26T05:21:39;9.80;76.30
37560;DHT22;23398;50.928;7.084;2024-02-26T05:24:06;9.80;76.40
37560;DHT22;23398;50.928;7.084;2024-02-26T05:26:32;9.80;76.40
37560;DHT22;23398;50.928;7.084;2024-02-26T05:28:57;9.80;76.40
37560;DHT22;23398;50.928;7.084;2024-02-26T05:31:26;9.80;76.60
37560;DHT22;23398;50.928;7.084;2024-02-26T05:33:51;9.80;76.40
37560;DHT22;23398;50.928;7.084;2024-02-26T05:36:23;9.80;77.00
37560;DHT22;23398;50.928;7.084;2024-02-26T05:38:49;9.80;77.60
37560;DHT22;23398;50.928;7.084;2024-02-26T05:41:18;9.80;77.50
37560;DHT22;23398;50.928;7.084;2024-02-26T05:43:49;9.80;78.00
37560;DHT22;23398;50.928;7.084;2024-02-26T05:46:17;9.80;78.00
37560;DHT22;23398;50.928;7.084;2024-02-26T05:48:44;9.80;78.00
37560;DHT22;23398;50.928;7.084;2024-02-26T05:51:09;9.80;78.10
37560;DHT22;23398;50.928;7.084;2024-02-26T05:53:35;9.80;78.00
37560;DHT22;23398;50.928;7.084;2024-02-26T05:56:00;9.80;78.00
37560;DHT22;23398;50.928;7.084;2024-02-26T05:58:26;9.80;77.90
37560;DHT22;23398;50.928;7.084;2024-02-26T06:00:52;9.80;77.80
37560;DHT22;23398;50.928;7.084;2024-02-26T06:03:17;9.80;77.70
37560;DHT22;23398;50.928;7.084;2024-02-26T06:05:43;9.80;77.40
37560;DHT22;23398;50.928;7.084;2024-02-26T06:08:08;9.80;77.40
37560;DHT22;23398;50.928;7.084;2024-02-26T06:10:34;9.70;77.30
37560;DHT22;23398;50.928;7.084;2024-02-26T06:13:00;9.70;77.50
37560;DHT22;23398;50.928;7.084;2024-02-26T06:15:25;9.70;77.60
37560;DHT22;23398;50.928;7.084;2024-02-26T06:17:51;9.70;77.50
37560;DHT22;23398;50.928;7.084;2024-02-26T06:20:16;9.70;77.40
37560;DHT22;23398;50.928;7.084;2024-02-26T06:22:42;9.70;77.70
37560;DHT22;23398;50.928;7.084;2024-02-26T06:25:08;9.60;78.00
37560;DHT22;23398;50.928;7.084;2024-02-26T06:27:34;9.60;77.90
37560;DHT22;23398;50.928;7.084;2024-02-26T06:30:00;9.60;78.00
37560;DHT22;23398;50.928;7.084;2024-02-26T06:32:26;9.60;77.80
37560;DHT22;23398;50.928;7.084;2024-02-26T06:34:55;9.60;77.60
37560;DHT22;23398;50.928;7.084;2024-02-26T06:37:21;9.60;77.70
37560;DHT22;23398;50.928;7.084;2024-02-26T06:39:46;9.60;77.80
37560;DHT22;23398;50.928;7.084;2024-02-26T06:42:12;9.60;78.40
37560;DHT22;23398;50.928;7.084;2024-02-26T06:44:38;9.50;78.80
37560;DHT22;23398;50.928;7.084;2024-02-26T06:47:03;9.60;79.00
37560;DHT22;23398;50.928;7.084;2024-02-26T06:49:29;9.50;78.50
37560;DHT22;23398;50.928;7.084;2024-02-26T06:51:55;9.50;79.00
37560;DHT22;23398;50.928;7.084;2024-02-26T06:54:21;9.50;79.30
37560;DHT22;23398;50.928;7.084;2024-02-26T06:56:46;9.50;79.60
37560;DHT22;23398;50.928;7.084;2024-02-26T06:59:12;9.50;79.50
37560;DHT22;23398;50.928;7.084;2024-02-26T07:01:40;9.50;80.20
37560;DHT22;23398;50.928;7.084;2024-02-26T07:04:06;9.50;80.40
37560;DHT22;23398;50.928;7.084;2024-02-26T07:06:32;9.50;80.50
37560;DHT22;23398;50.928;7.084;2024-02-26T07:08:57;9.60;80.40
37560;DHT22;23398;50.928;7.084;2024-02-26T07:11:23;9.60;79.80
37560;DHT22;23398;50.928;7.084;2024-02-26T07:13:48;9.60;80.20
37560;DHT22;23398;50.928;7.084;2024-02-26T07:16:15;9.60;80.60
37560;DHT22;23398;50.928;7.084;2024-02-26T07:18:41;9.60;81.10
37560;DHT22;23398;50.928;7.084;2024-02-26T07:21:06;9.60;81.40
37560;DHT22;23398;50.928;7.084;2024-02-26T07:23:32;9.60;81.40
37560;DHT22;23398;50.928;7.084;2024-02-26T07:25:58;9.60;81.00
37560;DHT22;23398;50.928;7.084;2024-02-26T07:28:24;9.60;80.70
37560;DHT22;23398;50.928;7.084;2024-02-26T07:30:50;9.60;81.10
37560;DHT22;23398;50.928;7.084;2024-02-26T07:33:16;9.60;81.10
37560;DHT22;23398;50.928;7.084;2024-02-26T07:35:41;9.60;81.00
37560;DHT22;23398;50.928;7.084;2024-02-26T07:38:07;9.60;81.40
37560;DHT22;23398;50.928;7.084;2024-02-26T07:40:33;9.60;81.40
37560;DHT22;23398;50.928;7.084;2024-02-26T07:42:58;9.60;81.80
37560;DHT22;23398;50.928;7.084;2024-02-26T07:45:24;9.60;81.60
37560;DHT22;23398;50.928;7.084;2024-02-26T07:47:49;9.60;82.30
37560;DHT22;23398;50.928;7.084;2024-02-26T07:50:17;9.60;82.80
37560;DHT22;23398;50.928;7.084;2024-02-26T07:52:44;9.60;82.90
37560;DHT22;23398;50.928;7.084;2024-02-26T07:55:10;9.50;83.30
37560;DHT22;23398;50.928;7.084;2024-02-26T07:57:36;9.50;84.20
37560;DHT22;23398;50.928;7.084;2024-02-26T08:00:04;9.60;84.10
37560;DHT22;23398;50.928;7.084;2024-02-26T08:02:34;9.50;85.40
37560;DHT22;23398;50.928;7.084;2024-02-26T08:05:00;9.60;85.90
37560;DHT22;23398;50.928;7.084;2024-02-26T08:07:25;9.50;86.80
37560;DHT22;23398;50.928;7.084;2024-02-26T08:09:51;9.60;87.20
37560;DHT22;23398;50.928;7.084;2024-02-26T08:12:16;9.50;87.40
37560;DHT22;23398;50.928;7.084;2024-02-26T08:14:42;9.60;87.80
37560;DHT22;23398;50.928;7.084;2024-02-26T08:17:09;9.50;88.90
37560;DHT22;23398;50.928;7.084;2024-02-26T08:19:35;9.60;89.50
37560;DHT22;23398;50.928;7.084;2024-02-26T08:22:01;9.60;90.10
37560;DHT22;23398;50.928;7.084;2024-02-26T08:24:27;9.50;90.50
37560;DHT22;23398;50.928;7.084;2024-02-26T08:26:53;9.60;90.60
37560;DHT22;23398;50.928;7.084;2024-02-26T08:29:18;9.60;90.90
37560;DHT22;23398;50.928;7.084;2024-02-26T08:31:44;9.60;91.10
37560;DHT22;23398;50.928;7.084;2024-02-26T08:34:10;9.60;91.20
37560;DHT22;23398;50.928;7.084;2024-02-26T08:36:36;9.60;91.30
37560;DHT22;23398;50.928;7.084;2024-02-26T08:39:01;9.60;91.60
37560;DHT22;23398;50.928;7.084;2024-02-26T08:41:27;9.70;92.20
37560;DHT22;23398;50.928;7.084;2024-02-26T08:43:53;9.70;92.20
37560;DHT22;23398;50.928;7.084;2024-02-26T08:46:18;9.70;92.60
37560;DHT22;23398;50.928;7.084;2024-02-26T08:48:44;9.70;92.80
37560;DHT22;23398;50.928;7.084;2024-02-26T08:51:09;9.70;93.00
37560;DHT22;23398;50.928;7.084;2024-02-26T08:53:36;9.70;93.00
37560;DHT22;23398;50.928;7.084;2024-02-26T08:56:02;9.80;93.00
37560;DHT22;23398;50.928;7.084;2024-02-26T08:58:28;9.80;93.20
37560;DHT22;23398;50.928;7.084;2024-02-26T09:00:54;9.80;93.40
37560;DHT22;23398;50.928;7.084;2024-02-26T09:03:20;9.80;92.80
37560;DHT22;23398;50.928;7.084;2024-02-26T09:05:46;9.80;92.90
37560;DHT22;23398;50.928;7.084;2024-02-26T09:08:11;9.80;93.20
37560;DHT22;23398;50.928;7.084;2024-02-26T09:10:38;9.80;93.60
37560;DHT22;23398;50.928;7.084;2024-02-26T09:13:04;9.80;93.60
37560;DHT22;23398;50.928;7.084;2024-02-26T09:15:30;9.80;93.90
37560;DHT22;23398;50.928;7.084;2024-02-26T09:17:55;9.90;93.50
37560;DHT22;23398;50.928;7.084;2024-02-26T09:20:21;9.90;93.60
37560;DHT22;23398;50.928;7.084;2024-02-26T09:22:47;9.90;93.90
37560;DHT22;23398;50.928;7.084;2024-02-26T09:25:13;9.80;93.90
37560;DHT22;23398;50.928;7.084;2024-02-26T09:27:42;9.90;94.20
37560;DHT22;23398;50.928;7.084;2024-02-26T09:30:11;9.90;94.40
37560;DHT22;23398;50.928;7.084;2024-02-26T09:32:38;9.90;94.50
37560;DHT22;23398;50.928;7.084;2024-02-26T09:35:04;9.90;94.70
37560;DHT22;23398;50.928;7.084;2024-02-26T09:37:30;9.90;94.50
37560;DHT22;23398;50.928;7.084;2024-02-26T09:39:55;9.90;94.70
37560;DHT22;23398;50.928;7.084;2024-02-26T09:42:23;9.90;94.80
37560;DHT22;23398;50.928;7.084;2024-02-26T09:44:53;9.90;95.10
37560;DHT22;23398;50.928;7.084;2024-02-26T09:47:19;9.90;95.10
37560;DHT22;23398;50.928;7.084;2024-02-26T09:49:46;9.90;95.20
37560;DHT22;23398;50.928;7.084;2024-02-26T09:52:14;9.90;95.30
37560;DHT22;23398;50.928;7.084;2024-02-26T09:54:40;9.90;95.50
37560;DHT22;23398;50.928;7.084;2024-02-26T09:57:09;10.00;95.00
37560;DHT22;23398;50.928;7.084;2024-02-26T09:59:41;10.00;95.20
37560;DHT22;23398;50.928;7.084;2024-02-26T10:02:12;10.00;95.20
37560;DHT22;23398;50.928;7.084;2024-02-26T10:04:41;10.00;95.60
37560;DHT22;23398;50.928;7.084;2024-02-26T10:07:11;10.00;95.50
37560;DHT22;23398;50.928;7.084;2024-02-26T10:09:37;10.00;95.60
37560;DHT22;23398;50.928;7.084;2024-02-26T10:12:04;10.10;95.60
37560;DHT22;23398;50.928;7.084;2024-02-26T10:14:30;10.10;96.20
37560;DHT22;23398;50.928;7.084;2024-02-26T10:16:56;10.10;96.00
37560;DHT22;23398;50.928;7.084;2024-02-26T10:19:26;10.10;96.10
37560;DHT22;23398;50.928;7.084;2024-02-26T10:21:59;10.20;96.30
37560;DHT22;23398;50.928;7.084;2024-02-26T10:24:26;10.20;95.90
37560;DHT22;23398;50.928;7.084;2024-02-26T10:26:52;10.30;95.60
37560;DHT22;23398;50.928;7.084;2024-02-26T10:29:20;10.30;95.60
37560;DHT22;23398;50.928;7.084;2024-02-26T10:31:46;10.30;95.70
37560;DHT22;23398;50.928;7.084;2024-02-26T10:34:12;10.30;95.70
37560;DHT22;23398;50.928;7.084;2024-02-26T10:36:38;10.40;95.50
37560;DHT22;23398;50.928;7.084;2024-02-26T10:39:06;10.40;95.70
37560;DHT22;23398;50.928;7.084;2024-02-26T10:41:35;10.40;95.50
37560;DHT22;23398;50.928;7.084;2024-02-26T10:44:01;10.40;95.70
37560;DHT22;23398;50.928;7.084;2024-02-26T10:46:27;10.40;95.40
37560;DHT22;23398;50.928;7.084;2024-02-26T10:48:53;10.40;95.60
37560;DHT22;23398;50.928;7.084;2024-02-26T10:51:26;10.50;95.80
37560;DHT22;23398;50.928;7.084;2024-02-26T10:53:55;10.60;96.00
37560;DHT22;23398;50.928;7.084;2024-02-26T10:56:25;10.60;95.60
37560;DHT22;23398;50.928;7.084;2024-02-26T10:58:53;10.60;95.50
37560;DHT22;23398;50.928;7.084;2024-02-26T11:01:19;10.60;95.70
37560;DHT22;23398;50.928;7.084;2024-02-26T11:03:47;10.70;95.60
37560;DHT22;23398;50.928;7.084;2024-02-26T11:06:14;10.70;95.70
37560;DHT22;23398;50.928;7.084;2024-02-26T11:08:41;10.80;95.40
37560;DHT22;23398;50.928;7.084;2024-02-26T11:11:07;10.80;95.60
37560;DHT22;23398;50.928;7.084;2024-02-26T11:13:33;10.80;95.50
37560;DHT22;23398;50.928;7.084;2024-02-26T11:16:01;10.80;95.60
37560;DHT22;23398;50.928;7.084;2024-02-26T11:18:27;10.80;95.40
37560;DHT22;23398;50.928;7.084;2024-02-26T11:20:54;10.90;95.50
37560;DHT22;23398;50.928;7.084;2024-02-26T11:23:22;10.90;95.20
37560;DHT22;23398;50.928;7.084;2024-02-26T11:25:50;10.90;95.00
37560;DHT22;23398;50.928;7.084;2024-02-26T11:28:19;10.90;95.00
37560;DHT22;23398;50.928;7.084;2024-02-26T11:30:48;10.90;95.10
37560;DHT22;23398;50.928;7.084;2024-02-26T11:33:15;10.90;95.20
37560;DHT22;23398;50.928;7.084;2024-02-26T11:35:41;10.90;95.00
37560;DHT22;23398;50.928;7.084;2024-02-26T11:38:07;11.00;95.20
37560;DHT22;23398;50.928;7.084;2024-02-26T11:40:37;11.00;95.30
37560;DHT22;23398;50.928;7.084;2024-02-26T11:43:04;11.00;95.40
37560;DHT22;23398;50.928;7.084;2024-02-26T11:48:21;11.00;95.60
37560;DHT22;23398;50.928;7.084;2024-02-26T11:55:48;11.10;95.70
37560;DHT22;23398;50.928;7.084;2024-02-26T11:58:34;11.20;95.60
37560;DHT22;23398;50.928;7.084;2024-02-26T12:00:59;11.20;95.50
37560;DHT22;23398;50.928;7.084;2024-02-26T12:03:25;11.30;95.60
37560;DHT22;23398;50.928;7.084;2024-02-26T12:05:52;11.30;95.60
37560;DHT22;23398;50.928;7.084;2024-02-26T12:08:17;11.30;95.80
37560;DHT22;23398;50.928;7.084;2024-02-26T12:10:45;11.40;95.50
37560;DHT22;23398;50.928;7.084;2024-02-26T12:13:15;11.40;95.60
37560;DHT22;23398;50.928;7.084;2024-02-26T12:15:45;11.50;95.40
37560;DHT22;23398;50.928;7.084;2024-02-26T12:18:20;11.50;95.10
37560;DHT22;23398;50.928;7.084;2024-02-26T12:20:46;11.60;94.70
37560;DHT22;23398;50.928;7.084;2024-02-26T12:23:16;11.60;94.60
37560;DHT22;23398;50.928;7.084;2024-02-26T12:25:45;11.70;94.80
37560;DHT22;23398;50.928;7.084;2024-02-26T12:28:14;11.70;94.70
37560;DHT22;23398;50.928;7.084;2024-02-26T12:30:40;11.70;94.90
37560;DHT22;23398;50.928;7.084;2024-02-26T12:33:05;11.80;94.60
37560;DHT22;23398;50.928;7.084;2024-02-26T12:35:35;11.80;94.50
37560;DHT22;23398;50.928;7.084;2024-02-26T12:38:01;11.80;94.60
37560;DHT22;23398;50.928;7.084;2024-02-26T12:40:26;11.80;94.10
37560;DHT22;23398;50.928;7.084;2024-02-26T12:42:54;11.90;94.20
37560;DHT22;23398;50.928;7.084;2024-02-26T12:45:21;11.90;94.20
37560;DHT22;23398;50.928;7.084;2024-02-26T12:47:46;11.90;94.10
37560;DHT22;23398;50.928;7.084;2024-02-26T12:50:13;11.90;93.50
37560;DHT22;23398;50.928;7.084;2024-02-26T12:52:43;11.90;93.60
37560;DHT22;23398;50.928;7.084;2024-02-26T12:55:11;11.90;93.70
37560;DHT22;23398;50.928;7.084;2024-02-26T12:57:39;11.90;93.60
37560;DHT22;23398;50.928;7.084;2024-02-26T13:00:06;11.90;93.20
37560;DHT22;23398;50.928;7.084;2024-02-26T13:02:37;11.90;93.20
37560;DHT22;23398;50.928;7.084;2024-02-26T13:05:06;11.90;92.90
37560;DHT22;23398;50.928;7.084;2024-02-26T13:07:32;11.90;92.80
37560;DHT22;23398;50.928;7.084;2024-02-26T13:09:58;11.90;92.90
37560;DHT22;23398;50.928;7.084;2024-02-26T13:12:24;12.00;93.10
37560;DHT22;23398;50.928;7.084;2024-02-26T13:15:03;12.00;93.40
37560;DHT22;23398;50.928;7.084;2024-02-26T13:17:32;12.00;93.90
37560;DHT22;23398;50.928;7.084;2024-02-26T13:19:58;12.00;93.80
37560;DHT22;23398;50.928;7.084;2024-02-26T13:22:23;12.10;93.70
37560;DHT22;23398;50.928;7.084;2024-02-26T13:24:56;12.10;93.50
37560;DHT22;23398;50.928;7.084;2024-02-26T13:27:25;12.20;93.30
37560;DHT22;23398;50.928;7.084;2024-02-26T13:30:12;12.20;93.40
37560;DHT22;23398;50.928;7.084;2024-02-26T13:32:41;12.30;92.70
37560;DHT22;23398;50.928;7.084;2024-02-26T13:35:08;12.30;91.90
37560;DHT22;23398;50.928;7.084;2024-02-26T13:37:35;12.30;91.30
37560;DHT22;23398;50.928;7.084;2024-02-26T13:40:04;11.50;91.00
37560;DHT22;23398;50.928;7.084;2024-02-26T13:42:30;12.20;91.50
37560;DHT22;23398;50.928;7.084;2024-02-26T13:44:56;12.20;91.60
37560;DHT22;23398;50.928;7.084;2024-02-26T13:47:22;12.20;91.50
37560;DHT22;23398;50.928;7.084;2024-02-26T13:49:47;12.20;91.70
37560;DHT22;23398;50.928;7.084;2024-02-26T13:52:13;12.20;92.00
37560;DHT22;23398;50.928;7.084;2024-02-26T13:54:39;12.10;92.60
37560;DHT22;23398;50.928;7.084;2024-02-26T13:57:06;12.10;91.90
37560;DHT22;23398;50.928;7.084;2024-02-26T13:59:31;12.10;91.70
37560;DHT22;23398;50.928;7.084;2024-02-26T14:01:57;12.20;91.30
37560;DHT22;23398;50.928;7.084;2024-02-26T14:04:23;12.20;91.10
37560;DHT22;23398;50.928;7.084;2024-02-26T14:06:48;12.10;90.90
37560;DHT22;23398;50.928;7.084;2024-02-26T14:09:14;12.20;90.10
37560;DHT22;23398;50.928;7.084;2024-02-26T14:11:47;12.10;90.10
37560;DHT22;23398;50.928;7.084;2024-02-26T14:14:13;12.10;90.30
37560;DHT22;23398;50.928;7.084;2024-02-26T14:16:39;12.10;90.20
37560;DHT22;23398;50.928;7.084;2024-02-26T14:19:04;12.00;90.20
37560;DHT22;23398;50.928;7.084;2024-02-26T14:21:30;12.00;90.10
37560;DHT22;23398;50.928;7.084;2024-02-26T14:23:56;11.90;90.20
37560;DHT22;23398;50.928;7.084;2024-02-26T14:26:24;11.90;90.40
37560;DHT22;23398;50.928;7.084;2024-02-26T14:28:50;11.90;90.60
37560;DHT22;23398;50.928;7.084;2024-02-26T14:31:18;11.80;90.20
37560;DHT22;23398;50.928;7.084;2024-02-26T14:33:44;11.80;91.00
37560;DHT22;23398;50.928;7.084;2024-02-26T14:36:10;11.80;91.20
37560;DHT22;23398;50.928;7.084;2024-02-26T14:38:36;11.80;91.10
37560;DHT22;23398;50.928;7.084;2024-02-26T14:41:02;11.70;90.80
37560;DHT22;23398;50.928;7.084;2024-02-26T14:43:29;11.70;90.80
37560;DHT22;23398;50.928;7.084;2024-02-26T14:45:55;11.70;91.20
37560;DHT22;23398;50.928;7.084;2024-02-26T14:48:21;11.80;91.40
37560;DHT22;23398;50.928;7.084;2024-02-26T14:50:46;11.70;92.10
37560;DHT22;23398;50.928;7.084;2024-02-26T14:53:12;11.70;92.40
37560;DHT22;23398;50.928;7.084;2024-02-26T14:55:37;11.70;92.50
37560;DHT22;23398;50.928;7.084;2024-02-26T14:58:04;11.70;92.70
37560;DHT22;23398;50.928;7.084;2024-02-26T15:00:29;11.80;92.60
37560;DHT22;23398;50.928;7.084;2024-02-26T15:02:59;11.80;92.10
37560;DHT22;23398;50.928;7.084;2024-02-26T15:05:24;11.80;91.80
37560;DHT22;23398;50.928;7.084;2024-02-26T15:07:50;11.80;91.60
37560;DHT22;23398;50.928;7.084;2024-02-26T15:10:15;11.80;91.70
37560;DHT22;23398;50.928;7.084;2024-02-26T15:12:41;11.90;91.40
37560;DHT22;23398;50.928;7.084;2024-02-26T15:15:07;11.80;91.00
37560;DHT22;23398;50.928;7.084;2024-02-26T15:17:33;11.90;91.30
37560;DHT22;23398;50.928;7.084;2024-02-26T15:20:00;11.90;91.00
37560;DHT22;23398;50.928;7.084;2024-02-26T15:22:27;11.90;90.80
37560;DHT22;23398;50.928;7.084;2024-02-26T15:24:53;11.90;90.70
37560;DHT22;23398;50.928;7.084;2024-02-26T15:27:18;11.90;91.30
37560;DHT22;23398;50.928;7.084;2024-02-26T15:29:44;11.90;90.80
37560;DHT22;23398;50.928;7.084;2024-02-26T15:32:10;11.90;90.80
37560;DHT22;23398;50.928;7.084;2024-02-26T15:34:36;11.90;90.70
37560;DHT22;23398;50.928;7.084;2024-02-26T15:37:02;11.90;90.80
37560;DHT22;23398;50.928;7.084;2024-02-26T15:39:28;11.90;90.70
37560;DHT22;23398;50.928;7.084;2024-02-26T15:41:54;11.90;90.70